9NC9 weather

Public forecast

Using degrees Fahrenheit for public forecast. Weather courtesy of forecast.io.

Closest aviation weather report (METAR) to Meylor Field

Closest report is Piedmont Triad International Airport, 7.0 nm (13.1 km) SSW. Retrieved 2020/08/10 23:54 UTC (39 minutes ago):

KGSO 102354Z 19007KT 10SM FEW046 SCT110 BKN250 25/21 A3001 RMK AO2 RAE10 TSE14 SLP150 TS MOV NW CB DSNT SE P0000 60000 T02500211 10317 20228 51003

Closest aviation forecast (TAF) to Meylor Field

Closest forecast is Piedmont Triad International Airport, 7.0 nm (13.1 km) SSW. Retrieved 2020-08-11 00:30 UTC (3 minutes ago):

TAF KGSO 102328Z 1100/1124 VRB04KT P6SM FEW060 BKN120 FM110100 VRB05KT P6SM SCT250 TEMPO 1109/1113 2SM BR BKN004 FM111500 VRB03KT P6SM SCT040 BKN250